Bookmark and Share
Track history (hours):
 

Taasinge Maersk

Last reported at 2014-Apr-24 03:32 UTC. Time now 2014-Apr-24 04:24 UTC.
Position N 36°09' W 005°26'.

Length 191 m; draft 8.7 m.

Type: Ship. MMSI: 220157000.

NotesDate/timePositionNaut miles runAvg speedWind from/ knotsBaromVisibWave heightAir tempDewpointWater temp
2014-Apr-24 03:32N 36°09' W 005°26'0 0.0
2014-Apr-24 02:32N 36°09' W 005°26'0 0.0
2014-Apr-24 01:32N 36°09' W 005°26'0 0.0
2014-Apr-24 00:32N 36°09' W 005°26'0 0.0
2014-Apr-23 23:29N 36°09' W 005°26'0 0.0
2014-Apr-23 22:26N 36°09' W 005°26'0 0.0
2014-Apr-23 21:32N 36°09' W 005°26'0 0.0
2014-Apr-23 20:31N 36°09' W 005°26'0 0.0
2014-Apr-23 19:31N 36°09' W 005°26'0 0.0
2014-Apr-23 18:31N 36°09' W 005°26'0 0.0
2014-Apr-23 17:33N 36°09' W 005°26'0 0.0
2014-Apr-23 16:33N 36°09' W 005°26'0 0.0
2014-Apr-23 15:31N 36°09' W 005°26'0 0.0
2014-Apr-23 14:31N 36°09' W 005°26'0 0.0
2014-Apr-23 13:31N 36°09' W 005°26'0 0.0
2014-Apr-23 12:31N 36°09' W 005°26'0 0.0
2014-Apr-23 11:25N 36°09' W 005°26'0 0.0
2014-Apr-23 10:31N 36°09' W 005°26'0 0.0
2014-Apr-23 09:13N 36°09' W 005°26'0 0.0
2014-Apr-23 08:31N 36°09' W 005°26'2 1.8
2014-Apr-23 07:33N 36°09' W 005°24'6 6.0
2014-Apr-23 06:33N 36°04' W 005°19'2 1.5
2014-Apr-23 05:33N 36°04' W 005°21'4 4.2
2014-Apr-23 04:33N 36°01' W 005°24'  
2014-Apr-19 06:09N 37°30' W 009°36'610.4
2014-Apr-19 05:33N 37°36' W 009°35'1010.4
2014-Apr-19 04:33N 37°46' W 009°35'1010.4
2014-Apr-19 03:33N 37°57' W 009°35'1010.1
2014-Apr-19 02:34N 38°07' W 009°36'10 9.9
2014-Apr-19 01:33N 38°17' W 009°35'10 9.8
2014-Apr-19 00:32N 38°27' W 009°34'1010.6
2014-Apr-18 23:34N 38°35' W 009°25'1111.0
2014-Apr-18 22:33N 38°41' W 009°14'3 2.9
2014-Apr-18 21:33N 38°42' W 009°10'0 0.0
2014-Apr-18 20:32N 38°42' W 009°10'0 0.0
2014-Apr-18 19:32N 38°42' W 009°10'0 0.0
2014-Apr-18 18:32N 38°42' W 009°10'0 0.0
2014-Apr-18 17:32N 38°42' W 009°10'0 0.0
2014-Apr-18 16:32N 38°42' W 009°10'0 0.0
2014-Apr-18 15:32N 38°42' W 009°10'0 0.0
2014-Apr-18 14:32N 38°42' W 009°10'0 0.0
2014-Apr-18 13:32N 38°42' W 009°10'0 0.0
2014-Apr-18 12:32N 38°42' W 009°10'0 0.0
2014-Apr-18 11:32N 38°42' W 009°10'0 0.0
2014-Apr-18 10:32N 38°42' W 009°10'0 0.0
2014-Apr-18 09:32N 38°42' W 009°10'0 0.0
2014-Apr-18 08:32N 38°42' W 009°10'0 0.0
2014-Apr-18 07:32N 38°42' W 009°10'0 0.0
2014-Apr-18 06:32N 38°42' W 009°10'0 0.0
2014-Apr-18 05:32N 38°42' W 009°10'0 0.0
2014-Apr-18 04:32N 38°42' W 009°10'0 0.0
2014-Apr-18 03:32N 38°42' W 009°10'0 0.0
2014-Apr-18 02:32N 38°42' W 009°10'0 0.0
2014-Apr-18 01:32N 38°42' W 009°10'0 0.0
2014-Apr-18 00:32N 38°42' W 009°10'0 0.0
2014-Apr-17 23:32N 38°42' W 009°10'0 0.0
2014-Apr-17 22:31N 38°42' W 009°10'0 0.0
2014-Apr-17 21:31N 38°42' W 009°10'0 0.0
2014-Apr-17 20:31N 38°42' W 009°10'4 4.1
2014-Apr-17 19:33N 38°41' W 009°15'8 8.4
2014-Apr-17 18:33N 38°37' W 009°24'3110.2
2014-Apr-17 15:32N 38°36' W 010°03'1111.4
2014-Apr-17 14:33N 38°47' W 010°06'25 8.2
2014-Apr-17 11:25N 39°12' W 010°08'  
2014-Apr-15 06:33N 38°27' W 009°46'3310.9
2014-Apr-15 03:30N 37°54' W 009°37'1010.8
2014-Apr-15 02:32N 37°44' W 009°34'  

Dump ship's entire track history

sailing weather and tide predictions

Taasinge Maersk — OUSX2 — position and weather